Time;durP1;ratioP1;P1;durP2;ratioP2;P2;SDS_P1;SDS_P2;PMS_P1;PMS_P2;Temp;Humidity;BMP_temperature;BMP_pressure;BME280_temperature;BME280_humidity;BME280_pressure;Samples;Min_cycle;Max_cycle;Signal;HPM_P1;HPM_P2
2023/03/10 00:01:31;;;;;;;;;;;;;;;15.29;51.52;98912.59;5091222;28;19963;-37
2023/03/10 00:03:57;;;;;;;;;;;;;;;15.28;51.55;98919.84;5090814;28;19935;-37
2023/03/10 00:06:24;;;;;;;;;;;;;;;14.96;52.14;98923.25;5090794;28;20475;-36
2023/03/10 00:08:50;;;;;;;;;;;;;;;14.90;52.57;98926.16;5091275;28;19969;-36
2023/03/10 00:11:15;;;;;;;;;;;;;;;14.89;51.98;98924.53;5090819;28;19916;-36
2023/03/10 00:13:41;;;;;;;;;;;;;;;14.86;52.09;98925.84;5090755;28;19926;-37
2023/03/10 00:16:07;;;;;;;;;;;;;;;15.09;52.48;98915.91;5090909;28;20014;-37
2023/03/10 00:18:32;;;;;;;;;;;;;;;15.04;52.67;98917.47;5090925;28;19912;-37
2023/03/10 00:20:58;;;;;;;;;;;;;;;14.72;53.04;98911.25;5090595;28;20368;-37
2023/03/10 00:23:23;;;;;;;;;;;;;;;14.38;53.96;98909.47;5090649;28;19928;-37
2023/03/10 00:25:52;;;;;;;;;;;;;;;14.64;53.94;98905.25;5090865;28;19919;-37
2023/03/10 00:28:17;;;;;;;;;;;;;;;14.47;54.01;98897.28;5091461;28;19954;-38
2023/03/10 00:30:43;;;;;;;;;;;;;;;14.75;53.59;98894.66;5094292;28;19963;-38
2023/03/10 00:33:08;;;;;;;;;;;;;;;14.58;54.46;98898.25;5094281;28;19916;-38
2023/03/10 00:35:33;;;;;;;;;;;;;;;14.77;53.72;98898.69;5094430;28;19936;-38
2023/03/10 00:37:59;;;;;;;;;;;;;;;15.01;52.36;98896.53;5094498;28;19919;-38
2023/03/10 00:40:24;;;;;;;;;;;;;;;15.17;52.62;98908.22;5094398;28;20292;-38
2023/03/10 00:42:49;;;;;;;;;;;;;;;15.45;51.67;98911.66;5094508;28;19935;-38
2023/03/10 00:45:14;;;;;;;;;;;;;;;15.28;51.75;98908.31;5094184;28;19986;-38
2023/03/10 00:47:40;;;;;;;;;;;;;;;15.24;51.42;98913.38;5094513;28;20010;-37
2023/03/10 00:50:05;;;;;;;;;;;;;;;14.99;52.87;98912.06;5093929;28;20352;-37
2023/03/10 00:52:31;;;;;;;;;;;;;;;14.96;52.55;98909.88;5093882;28;20022;-38
2023/03/10 00:54:57;;;;;;;;;;;;;;;14.87;52.75;98911.41;5093922;28;19912;-37
2023/03/10 00:57:22;;;;;;;;;;;;;;;14.90;53.55;98910.88;5093853;28;19919;-37
2023/03/10 00:59:49;;;;;;;;;;;;;;;14.95;52.60;98905.59;5093982;28;20256;-37
2023/03/10 01:02:14;;;;;;;;;;;;;;;15.09;53.13;98903.31;5093656;28;19916;-37
2023/03/10 01:04:40;;;;;;;;;;;;;;;15.21;51.74;98909.34;5093785;28;19934;-37
2023/03/10 01:07:05;;;;;;;;;;;;;;;15.08;52.09;98901.72;5093975;28;19912;-37
2023/03/10 01:09:30;;;;;;;;;;;;;;;14.88;53.37;98906.84;5093738;28;20479;-38
2023/03/10 01:11:55;;;;;;;;;;;;;;;14.98;53.40;98913.13;5093951;28;19934;-37
2023/03/10 01:14:21;;;;;;;;;;;;;;;14.98;53.00;98904.25;5093523;28;19973;-38
2023/03/10 01:16:46;;;;;;;;;;;;;;;14.96;52.95;98909.88;5093734;28;19954;-36
2023/03/10 01:19:11;;;;;;;;;;;;;;;14.91;52.96;98912.50;5093624;28;20016;-37
2023/03/10 01:21:38;;;;;;;;;;;;;;;14.69;53.82;98901.81;5093297;28;19923;-37
2023/03/10 01:24:04;;;;;;;;;;;;;;;14.39;54.35;98896.88;5093271;28;19950;-37
2023/03/10 01:26:29;;;;;;;;;;;;;;;14.50;54.76;98895.16;5093488;28;19912;-37
2023/03/10 01:28:55;;;;;;;;;;;;;;;14.58;54.31;98895.56;5093358;28;19969;-37
2023/03/10 01:31:20;;;;;;;;;;;;;;;14.63;54.13;98902.81;5093507;28;19919;-36
2023/03/10 01:33:46;;;;;;;;;;;;;;;14.55;53.62;98889.88;5093242;28;19982;-37
2023/03/10 01:36:14;;;;;;;;;;;;;;;14.48;53.88;98890.03;5093194;28;19919;-37
2023/03/10 01:38:40;;;;;;;;;;;;;;;14.32;54.49;98891.72;5093154;28;19970;-36
2023/03/10 01:41:05;;;;;;;;;;;;;;;14.13;54.99;98895.75;5093329;28;19920;-37
2023/03/10 01:43:31;;;;;;;;;;;;;;;14.22;54.98;98897.75;5093369;28;19962;-37
2023/03/10 01:45:56;;;;;;;;;;;;;;;14.10;55.35;98896.25;5093185;28;19916;-37
2023/03/10 01:48:22;;;;;;;;;;;;;;;14.04;55.41;98892.69;5092838;28;19947;-37
2023/03/10 01:50:50;;;;;;;;;;;;;;;13.99;55.85;98897.97;5092661;28;19919;-37
2023/03/10 01:53:16;;;;;;;;;;;;;;;14.03;55.63;98888.38;5092916;28;19916;-37
2023/03/10 01:55:46;;;;;;;;;;;;;;;13.66;56.71;98888.94;5092880;28;20330;-37
2023/03/10 01:58:12;;;;;;;;;;;;;;;13.87;56.39;98884.69;5092783;28;19913;-37
2023/03/10 02:00:39;;;;;;;;;;;;;;;13.92;56.34;98882.09;5092754;28;19935;-37
2023/03/10 02:03:23;;;;;;;;;;;;;;;14.03;55.92;98889.22;5092472;28;20292;-37
2023/03/10 02:06:00;;;;;;;;;;;;;;;13.93;56.24;98886.38;5092752;28;19912;-38
2023/03/10 02:08:28;;;;;;;;;;;;;;;14.09;55.67;98882.06;5092585;28;19912;-37
2023/03/10 02:10:54;;;;;;;;;;;;;;;13.94;56.22;98876.50;5092590;28;19916;-38
2023/03/10 02:13:19;;;;;;;;;;;;;;;13.99;56.10;98885.41;5092330;28;20291;-38
2023/03/10 02:15:45;;;;;;;;;;;;;;;13.85;56.77;98881.47;5092565;28;20299;-37
2023/03/10 02:18:11;;;;;;;;;;;;;;;13.87;56.82;98888.16;5092466;28;20296;-38
2023/03/10 02:20:56;;;;;;;;;;;;;;;13.98;56.32;98888.34;5092314;28;19998;-37
2023/03/10 02:23:26;;;;;;;;;;;;;;;13.96;56.52;98893.94;5091688;28;19985;-37
2023/03/10 02:25:55;;;;;;;;;;;;;;;14.12;55.96;98896.81;5092240;28;19913;-37
2023/03/10 02:28:21;;;;;;;;;;;;;;;14.08;56.27;98907.19;5092275;28;19912;-38
2023/03/10 02:30:48;;;;;;;;;;;;;;;14.08;56.09;98899.97;5092252;28;20288;-38
2023/03/10 02:33:23;;;;;;;;;;;;;;;14.05;56.30;98895.13;5091937;28;20010;-37
2023/03/10 02:35:49;;;;;;;;;;;;;;;14.01;56.47;98899.34;5092417;28;19947;-37
2023/03/10 02:38:14;;;;;;;;;;;;;;;13.82;56.63;98897.97;5092030;28;20351;-37
2023/03/10 02:40:44;;;;;;;;;;;;;;;13.86;56.64;98899.13;5091897;28;19919;-37
2023/03/10 02:43:12;;;;;;;;;;;;;;;13.52;58.03;98898.31;5092096;28;19942;-37
2023/03/10 02:45:39;;;;;;;;;;;;;;;12.96;59.63;98912.31;5091835;28;19912;-37
2023/03/10 02:48:05;;;;;;;;;;;;;;;13.17;59.52;98913.50;5091574;28;20033;-37
2023/03/10 02:50:34;;;;;;;;;;;;;;;13.35;59.08;98912.50;5090773;28;19912;-37
2023/03/10 02:53:16;;;;;;;;;;;;;;;13.55;58.59;98919.22;5091425;28;19916;-37
2023/03/10 02:55:41;;;;;;;;;;;;;;;13.20;59.16;98923.72;5091761;28;19948;-37
2023/03/10 02:58:07;;;;;;;;;;;;;;;12.68;60.91;98929.97;5091672;28;20017;-37
2023/03/10 03:00:35;;;;;;;;;;;;;;;12.89;60.76;98925.81;5091931;28;19912;-37
2023/03/10 03:03:00;;;;;;;;;;;;;;;12.90;60.90;98935.44;5091786;28;19920;-37
2023/03/10 03:05:25;;;;;;;;;;;;;;;12.45;62.61;98938.00;5091403;28;19912;-37
2023/03/10 03:07:51;;;;;;;;;;;;;;;11.65;65.56;98948.22;5091593;28;19941;-36
2023/03/10 03:10:16;;;;;;;;;;;;;;;11.78;66.01;98933.03;5091369;28;19916;-37
2023/03/10 03:12:41;;;;;;;;;;;;;;;11.86;64.59;98941.53;5091071;28;19923;-37
2023/03/10 03:15:07;;;;;;;;;;;;;;;11.72;64.89;98932.91;5091142;28;19934;-37
2023/03/10 03:17:33;;;;;;;;;;;;;;;11.99;64.83;98943.16;5091476;28;19913;-36
2023/03/10 03:19:58;;;;;;;;;;;;;;;12.13;63.96;98939.22;5091466;28;19912;-37
2023/03/10 03:22:23;;;;;;;;;;;;;;;11.96;64.03;98926.84;5091178;28;20296;-37
2023/03/10 03:24:48;;;;;;;;;;;;;;;12.10;64.01;98918.34;5091320;28;19923;-38
2023/03/10 03:27:14;;;;;;;;;;;;;;;12.16;63.00;98919.25;5098509;28;19916;-37
2023/03/10 03:29:39;;;;;;;;;;;;;;;12.12;63.50;98923.44;5090876;28;20325;-37
2023/03/10 03:32:05;;;;;;;;;;;;;;;11.81;64.13;98890.75;5091370;28;19913;-37
2023/03/10 03:34:30;;;;;;;;;;;;;;;12.17;63.28;98920.91;5090956;28;20242;-38
2023/03/10 03:36:55;;;;;;;;;;;;;;;12.28;62.80;98929.91;5091362;28;19912;-37
2023/03/10 03:39:20;;;;;;;;;;;;;;;12.33;62.42;98920.16;5091193;28;19920;-37
2023/03/10 03:41:47;;;;;;;;;;;;;;;12.59;61.64;98923.38;5108180;28;19912;-37
2023/03/10 03:44:12;;;;;;;;;;;;;;;12.51;61.46;98927.22;5091184;28;19914;-37
2023/03/10 03:46:37;;;;;;;;;;;;;;;11.16;65.68;98931.53;5101288;28;19960;-37
2023/03/10 03:49:03;;;;;;;;;;;;;;;10.84;67.96;98921.13;5097733;28;19912;-37
2023/03/10 03:51:28;;;;;;;;;;;;;;;10.69;68.06;98926.03;5090942;28;19986;-37
2023/03/10 03:53:53;;;;;;;;;;;;;;;10.39;71.30;98918.78;5090884;28;19928;-37
2023/03/10 03:56:18;;;;;;;;;;;;;;;10.80;71.14;98925.28;5091175;28;19950;-37
2023/03/10 03:58:44;;;;;;;;;;;;;;;10.80;70.45;98925.28;5091187;28;20260;-35
2023/03/10 04:01:09;;;;;;;;;;;;;;;10.56;70.15;98921.66;5091192;28;20002;-36
2023/03/10 04:03:34;;;;;;;;;;;;;;;10.56;70.14;98917.16;5094475;28;19916;-35
2023/03/10 04:06:00;;;;;;;;;;;;;;;10.40;71.13;98909.00;5094830;28;20379;-37
2023/03/10 04:08:25;;;;;;;;;;;;;;;10.12;72.43;98911.09;5094819;28;19911;-36
2023/03/10 04:10:54;;;;;;;;;;;;;;;10.16;73.05;98911.47;5095005;28;20055;-36
2023/03/10 04:13:19;;;;;;;;;;;;;;;9.94;74.32;98913.75;5094478;28;19978;-36
2023/03/10 04:15:45;;;;;;;;;;;;;;;10.23;73.23;98909.53;5094279;28;20005;-37
2023/03/10 04:18:10;;;;;;;;;;;;;;;10.03;73.87;98912.41;5093883;28;20279;-44
2023/03/10 04:20:36;;;;;;;;;;;;;;;9.95;74.23;98918.81;5093689;28;19919;-44
2023/03/10 04:23:03;;;;;;;;;;;;;;;10.10;73.39;98915.81;5094254;28;19946;-42
2023/03/10 04:25:28;;;;;;;;;;;;;;;10.16;73.22;98912.25;5094106;28;20372;-42
2023/03/10 04:27:54;;;;;;;;;;;;;;;10.13;73.66;98914.56;5094250;28;20187;-43
2023/03/10 04:30:19;;;;;;;;;;;;;;;10.05;73.29;98921.00;5093790;28;19970;-43
2023/03/10 04:32:45;;;;;;;;;;;;;;;10.10;73.86;98921.13;5094201;28;19951;-43
2023/03/10 04:35:11;;;;;;;;;;;;;;;10.04;74.59;98924.66;5093748;28;20006;-43
2023/03/10 04:37:37;;;;;;;;;;;;;;;9.77;74.77;98919.59;5094538;28;20274;-43
2023/03/10 04:40:07;;;;;;;;;;;;;;;9.93;74.90;98928.84;5094167;28;20367;-43
2023/03/10 04:42:32;;;;;;;;;;;;;;;10.05;74.41;98922.81;5093842;28;19912;-42
2023/03/10 04:44:57;;;;;;;;;;;;;;;9.98;75.16;98925.56;5093282;28;19999;-44
2023/03/10 04:47:23;;;;;;;;;;;;;;;10.09;76.87;98931.97;5092995;28;19939;-43
2023/03/10 04:49:48;;;;;;;;;;;;;;;10.65;73.58;98908.88;5092698;28;19977;-43
2023/03/10 04:52:13;;;;;;;;;;;;;;;10.47;73.30;98921.19;5093005;28;19951;-41
2023/03/10 04:54:39;;;;;;;;;;;;;;;10.75;72.43;98925.13;5092709;28;19912;-42
2023/03/10 04:57:04;;;;;;;;;;;;;;;10.51;73.98;98924.22;5093193;28;20580;-44
2023/03/10 04:59:29;;;;;;;;;;;;;;;10.42;74.08;98922.88;5093066;28;19912;-43
2023/03/10 05:01:55;;;;;;;;;;;;;;;10.45;73.78;98915.28;5093211;28;19955;-43
2023/03/10 05:04:20;;;;;;;;;;;;;;;10.75;72.68;98920.59;5093616;28;19984;-43
2023/03/10 05:06:48;;;;;;;;;;;;;;;10.91;72.12;98918.38;5093275;28;19998;-44
2023/03/10 05:09:13;;;;;;;;;;;;;;;11.03;71.12;98910.44;5093602;28;19934;-44
2023/03/10 05:11:39;;;;;;;;;;;;;;;11.11;71.23;98918.91;5093692;28;20364;-43
2023/03/10 05:14:04;;;;;;;;;;;;;;;10.70;72.66;98923.16;5093065;28;20035;-43
2023/03/10 05:16:29;;;;;;;;;;;;;;;10.77;71.76;98920.38;5093674;28;19991;-44
2023/03/10 05:18:55;;;;;;;;;;;;;;;10.71;72.14;98923.94;5093398;28;19916;-43
2023/03/10 05:21:21;;;;;;;;;;;;;;;10.86;72.50;98916.38;5093358;28;19920;-42
2023/03/10 05:23:46;;;;;;;;;;;;;;;10.67;73.41;98920.13;5093399;28;19928;-43
2023/03/10 05:26:11;;;;;;;;;;;;;;;10.59;73.15;98864.56;5093319;28;19912;-44
2023/03/10 05:28:37;;;;;;;;;;;;;;;11.79;78.43;98914.16;5092976;28;19955;-44
2023/03/10 05:31:13;;;;;;;;;;;;;;;12.89;82.67;98917.81;5092868;28;19912;-43
2023/03/10 05:33:38;;;;;;;;;;;;;;;13.64;68.36;98905.22;5092812;28;19916;-44
2023/03/10 05:36:04;;;;;;;;;;;;;;;13.85;61.91;98924.25;5092795;28;19918;-44
2023/03/10 05:38:29;;;;;;;;;;;;;;;13.90;61.10;98918.97;5092720;28;20242;-44
2023/03/10 05:40:55;;;;;;;;;;;;;;;13.77;60.36;98920.13;5092927;28;19927;-44
2023/03/10 05:43:20;;;;;;;;;;;;;;;13.69;60.45;98916.00;5092731;28;19965;-44
2023/03/10 05:45:53;;;;;;;;;;;;;;;13.68;60.59;98919.72;5092425;28;20008;-44
2023/03/10 05:48:18;;;;;;;;;;;;;;;13.68;60.86;98911.69;5092604;28;19912;-43
2023/03/10 05:50:43;;;;;;;;;;;;;;;13.88;59.71;98913.06;5091902;28;20131;-43
2023/03/10 05:53:09;;;;;;;;;;;;;;;13.86;60.09;98912.50;5091849;28;19923;-43
2023/03/10 05:55:34;;;;;;;;;;;;;;;13.72;60.14;98908.53;5089842;28;19923;-43
2023/03/10 05:57:59;;;;;;;;;;;;;;;13.79;60.38;98907.31;5090777;28;20021;-45
2023/03/10 06:00:24;;;;;;;;;;;;;;;13.57;61.21;98907.22;5091422;28;19916;-45
2023/03/10 06:02:50;;;;;;;;;;;;;;;13.69;61.24;98905.31;5091710;28;19912;-44
2023/03/10 06:05:15;;;;;;;;;;;;;;;13.76;60.25;98901.66;5091875;28;20410;-44
2023/03/10 06:07:41;;;;;;;;;;;;;;;13.95;59.85;98904.88;5092255;28;19912;-42
2023/03/10 06:10:06;;;;;;;;;;;;;;;14.04;59.47;98901.50;5092387;28;20383;-43
2023/03/10 06:12:32;;;;;;;;;;;;;;;14.20;58.88;98902.56;5092274;28;19916;-44
2023/03/10 06:14:57;;;;;;;;;;;;;;;14.15;58.61;98893.66;5092037;28;20025;-43
2023/03/10 06:17:22;;;;;;;;;;;;;;;14.25;58.13;98899.13;5091948;28;19912;-43
2023/03/10 06:19:48;;;;;;;;;;;;;;;14.28;59.01;98895.97;5091881;28;19912;-44
2023/03/10 06:22:13;;;;;;;;;;;;;;;14.45;58.51;98895.91;5092210;28;20333;-44
2023/03/10 06:24:39;;;;;;;;;;;;;;;14.65;57.59;98895.34;5091852;28;19916;-43
2023/03/10 06:27:04;;;;;;;;;;;;;;;14.88;57.04;98894.25;5090883;28;19920;-45
2023/03/10 06:29:29;;;;;;;;;;;;;;;15.01;57.21;98899.22;5091563;28;19912;-45
2023/03/10 06:31:54;;;;;;;;;;;;;;;14.53;60.73;98900.81;5091487;28;20065;-44
2023/03/10 06:34:20;;;;;;;;;;;;;;;15.36;58.29;98897.13;5091615;28;20000;-47
2023/03/10 06:36:45;;;;;;;;;;;;;;;15.77;56.44;98900.94;5091308;28;19916;-45
2023/03/10 06:39:10;;;;;;;;;;;;;;;16.23;54.33;98895.84;5091369;28;19916;-45
2023/03/10 06:41:36;;;;;;;;;;;;;;;16.34;53.74;98895.91;5091479;28;19918;-44
2023/03/10 06:44:01;;;;;;;;;;;;;;;16.67;53.03;98897.38;5091427;28;19912;-44
2023/03/10 06:46:27;;;;;;;;;;;;;;;17.13;51.58;98899.38;5091214;28;19912;-44
2023/03/10 06:48:53;;;;;;;;;;;;;;;17.12;50.70;98897.78;5090978;28;20324;-44
2023/03/10 06:51:19;;;;;;;;;;;;;;;17.50;49.62;98899.16;5091168;28;19912;-45
2023/03/10 06:53:45;;;;;;;;;;;;;;;17.73;49.20;98896.97;5091247;28;20012;-44
2023/03/10 06:56:12;;;;;;;;;;;;;;;17.80;48.70;98892.13;5091082;28;19938;-44
2023/03/10 06:58:37;;;;;;;;;;;;;;;18.23;48.20;98889.88;5091389;28;19947;-43
2023/03/10 07:01:03;;;;;;;;;;;;;;;18.49;47.25;98887.13;5091073;28;20331;-43
2023/03/10 07:03:28;;;;;;;;;;;;;;;18.66;46.53;98890.25;5091057;28;20003;-45
2023/03/10 07:05:54;;;;;;;;;;;;;;;18.83;46.54;98886.41;5091017;28;19944;-43
2023/03/10 07:08:20;;;;;;;;;;;;;;;19.04;45.62;98884.38;5090973;28;20003;-43
2023/03/10 07:10:45;;;;;;;;;;;;;;;19.19;45.11;98883.47;5090912;28;19943;-44
2023/03/10 07:13:14;;;;;;;;;;;;;;;18.74;46.08;98876.19;5090783;28;20372;-44
2023/03/10 07:15:39;;;;;;;;;;;;;;;18.70;46.44;98869.75;5090910;28;19912;-44
2023/03/10 07:18:04;;;;;;;;;;;;;;;18.74;46.38;98872.69;5091207;28;20427;-44
2023/03/10 07:20:30;;;;;;;;;;;;;;;18.75;46.48;98867.03;5090567;28;19912;-47
2023/03/10 07:22:55;;;;;;;;;;;;;;;18.08;47.41;98871.88;5090686;28;19943;-44
2023/03/10 07:25:20;;;;;;;;;;;;;;;18.73;46.36;98869.22;5091039;28;20064;-43
2023/03/10 07:27:46;;;;;;;;;;;;;;;19.33;44.63;98881.78;5091043;28;19916;-45
2023/03/10 07:30:11;;;;;;;;;;;;;;;19.59;43.29;98892.34;5091048;28;20322;-44
2023/03/10 07:32:36;;;;;;;;;;;;;;;20.22;42.15;98894.97;5090887;28;19922;-44
2023/03/10 07:35:02;;;;;;;;;;;;;;;20.29;41.00;98883.81;5091148;28;19978;-43
2023/03/10 07:37:27;;;;;;;;;;;;;;;20.34;41.45;98883.75;5094562;28;19977;-43
2023/03/10 07:39:53;;;;;;;;;;;;;;;20.34;40.70;98886.47;5097912;28;19919;-42
2023/03/10 07:42:18;;;;;;;;;;;;;;;20.72;40.25;98877.66;5098002;28;19916;-44
2023/03/10 07:44:43;;;;;;;;;;;;;;;20.74;40.32;98875.47;5097693;28;19919;-44
2023/03/10 07:47:09;;;;;;;;;;;;;;;20.33;41.21;98889.44;5097542;28;20416;-44
2023/03/10 07:49:34;;;;;;;;;;;;;;;20.50;40.82;98881.66;5097715;28;19916;-43
2023/03/10 07:51:59;;;;;;;;;;;;;;;20.12;41.21;98884.28;5097500;28;19923;-42
2023/03/10 07:54:24;;;;;;;;;;;;;;;20.41;41.49;98880.69;5097072;28;19942;-43
2023/03/10 07:56:50;;;;;;;;;;;;;;;20.40;41.41;98877.19;5097664;28;19912;-43
2023/03/10 07:59:15;;;;;;;;;;;;;;;20.72;41.05;98885.75;5097876;28;19919;-44
2023/03/10 08:01:40;;;;;;;;;;;;;;;20.55;41.39;98889.72;5097387;28;19996;-41
2023/03/10 08:04:06;;;;;;;;;;;;;;;19.89;42.36;98893.97;5097593;28;19912;-42
2023/03/10 08:06:33;;;;;;;;;;;;;;;19.60;43.29;98888.56;5097423;28;19919;-42
2023/03/10 08:08:59;;;;;;;;;;;;;;;19.52;44.11;98892.69;5096891;28;19912;-42
2023/03/10 08:11:24;;;;;;;;;;;;;;;19.96;43.35;98890.94;5097143;28;19912;-43
2023/03/10 08:13:50;;;;;;;;;;;;;;;20.01;43.13;98875.50;5097130;28;20357;-42
2023/03/10 08:16:16;;;;;;;;;;;;;;;20.41;42.92;98878.81;5097122;28;20007;-42
2023/03/10 08:18:41;;;;;;;;;;;;;;;20.79;41.72;98872.66;5097594;28;19954;-41
2023/03/10 08:21:07;;;;;;;;;;;;;;;20.44;42.00;98869.31;5097228;28;19916;-43
2023/03/10 08:23:32;;;;;;;;;;;;;;;20.54;42.46;98873.78;5097021;28;20338;-43
2023/03/10 08:26:03;;;;;;;;;;;;;;;19.78;44.02;98869.00;5096926;28;20337;-43
2023/03/10 08:28:29;;;;;;;;;;;;;;;19.85;44.02;98874.03;5097210;28;19968;-43
2023/03/10 08:30:55;;;;;;;;;;;;;;;19.92;43.25;98871.81;5097644;28;19912;-42
2023/03/10 08:33:20;;;;;;;;;;;;;;;19.99;43.12;98861.50;5097021;28;19916;-43
2023/03/10 08:35:46;;;;;;;;;;;;;;;19.02;45.32;98860.44;5096974;28;19926;-42
2023/03/10 08:38:11;;;;;;;;;;;;;;;19.47;44.93;98861.13;5097141;28;20410;-43
2023/03/10 08:40:36;;;;;;;;;;;;;;;19.75;44.36;98858.75;5096764;28;19919;-42
2023/03/10 08:43:02;;;;;;;;;;;;;;;20.38;42.98;98856.97;5096916;28;19918;-42
2023/03/10 08:45:27;;;;;;;;;;;;;;;20.38;42.40;98846.97;5096914;28;19931;-42
2023/03/10 08:47:53;;;;;;;;;;;;;;;20.29;42.08;98841.38;5096375;28;19912;-43
2023/03/10 08:50:18;;;;;;;;;;;;;;;19.87;41.12;98844.88;5092944;28;19913;-42
2023/03/10 08:52:43;;;;;;;;;;;;;;;19.88;41.44;98847.28;5093367;28;19916;-43
2023/03/10 08:55:09;;;;;;;;;;;;;;;20.06;41.04;98839.53;5093574;28;20024;-42
2023/03/10 08:57:34;;;;;;;;;;;;;;;20.37;41.25;98831.03;5093625;28;19928;-42
2023/03/10 09:00:00;;;;;;;;;;;;;;;20.24;41.55;98830.66;5093349;28;20011;-42
2023/03/10 09:02:26;;;;;;;;;;;;;;;19.63;43.20;98832.13;5093644;28;20414;-42
2023/03/10 09:04:52;;;;;;;;;;;;;;;19.41;43.47;98827.19;5093576;28;19912;-42
2023/03/10 09:07:17;;;;;;;;;;;;;;;19.79;43.07;98824.69;5093335;28;19934;-42
2023/03/10 09:09:43;;;;;;;;;;;;;;;19.83;43.55;98825.72;5093182;28;20495;-45
2023/03/10 09:12:09;;;;;;;;;;;;;;;20.54;42.00;98817.84;5093372;28;19912;-42
2023/03/10 09:14:35;;;;;;;;;;;;;;;20.83;41.36;98815.03;5093227;28;19938;-42
2023/03/10 09:17:00;;;;;;;;;;;;;;;20.87;40.88;98807.13;5093563;28;19999;-43
2023/03/10 09:19:26;;;;;;;;;;;;;;;20.92;41.24;98800.84;5093578;28;20000;-43
2023/03/10 09:21:51;;;;;;;;;;;;;;;21.36;39.77;98800.38;5093234;28;19916;-43
2023/03/10 09:24:18;;;;;;;;;;;;;;;21.04;38.47;98795.78;5093004;28;19932;-41
2023/03/10 09:26:43;;;;;;;;;;;;;;;21.01;39.29;98794.47;5092799;28;19918;-41
2023/03/10 09:29:08;;;;;;;;;;;;;;;20.66;40.08;98798.53;5092822;28;20003;-42
2023/03/10 09:31:34;;;;;;;;;;;;;;;20.96;40.36;98788.31;5092876;28;19912;-43
2023/03/10 09:34:00;;;;;;;;;;;;;;;21.12;39.99;98781.56;5092604;28;20399;-42
2023/03/10 09:36:25;;;;;;;;;;;;;;;21.05;39.68;98786.56;5092743;28;20002;-42
2023/03/10 09:38:51;;;;;;;;;;;;;;;21.23;39.07;98774.09;5092679;28;20014;-42
2023/03/10 09:41:19;;;;;;;;;;;;;;;21.28;38.97;98771.28;5092677;28;19919;-42
2023/03/10 09:44:03;;;;;;;;;;;;;;;20.24;40.86;98752.34;5092544;28;20361;-43
2023/03/10 09:46:42;;;;;;;;;;;;;;;20.92;39.83;98754.88;5092225;28;20388;-43
2023/03/10 09:49:10;;;;;;;;;;;;;;;20.80;40.75;98750.72;5092309;28;19972;-43
2023/03/10 09:51:37;;;;;;;;;;;;;;;20.36;41.20;98748.41;5092234;28;20392;-43
2023/03/10 09:54:21;;;;;;;;;;;;;;;20.39;42.14;98751.31;5092874;28;20352;-43
2023/03/10 09:56:46;;;;;;;;;;;;;;;20.96;41.12;98735.06;5092384;28;19966;-41
2023/03/10 09:59:15;;;;;;;;;;;;;;;20.72;41.37;98728.97;5092372;28;19947;-42
2023/03/10 10:01:44;;;;;;;;;;;;;;;20.78;42.40;98717.78;5092126;28;19919;-42
2023/03/10 10:04:16;;;;;;;;;;;;;;;20.75;42.25;98715.66;5092283;28;19919;-42
2023/03/10 10:06:43;;;;;;;;;;;;;;;21.15;41.38;98715.25;5092025;28;20326;-42
2023/03/10 10:09:12;;;;;;;;;;;;;;;21.01;41.81;98709.81;5092282;28;19942;-43
2023/03/10 10:11:38;;;;;;;;;;;;;;;20.69;42.52;98717.66;5091983;28;19960;-43
2023/03/10 10:14:13;;;;;;;;;;;;;;;21.24;41.87;98708.06;5091986;28;19924;-42
2023/03/10 10:17:14;;;;;;;;;;;;;;;21.53;41.47;98707.00;5091989;28;19912;-42
2023/03/10 10:19:39;;;;;;;;;;;;;;;21.64;41.16;98681.34;5049262;28;19913;-42
2023/03/10 10:22:14;;;;;;;;;;;;;;;21.65;41.16;98688.38;5082466;28;19919;-41
2023/03/10 10:24:39;;;;;;;;;;;;;;;20.97;42.42;98690.69;5091490;28;19916;-41
2023/03/10 10:27:05;;;;;;;;;;;;;;;20.87;42.41;98680.84;5091818;28;19938;-42
2023/03/10 10:29:37;;;;;;;;;;;;;;;21.34;41.97;98674.59;5091874;28;19993;-42
2023/03/10 10:32:15;;;;;;;;;;;;;;;21.29;41.42;98672.81;5091714;28;19912;-42
2023/03/10 10:34:44;;;;;;;;;;;;;;;20.96;41.97;98667.47;5091274;28;19951;-42
2023/03/10 10:37:27;;;;;;;;;;;;;;;21.41;41.59;98647.94;5091916;28;19920;-43
2023/03/10 10:39:54;;;;;;;;;;;;;;;22.31;39.82;98650.91;5091214;28;20438;-41
2023/03/10 10:42:24;;;;;;;;;;;;;;;22.42;39.58;98632.50;5091511;28;19937;-42
2023/03/10 10:44:54;;;;;;;;;;;;;;;21.73;40.48;98630.78;5091411;28;19912;-42
2023/03/10 10:47:25;;;;;;;;;;;;;;;21.77;40.53;98622.88;5091230;28;19912;-42
2023/03/10 10:49:50;;;;;;;;;;;;;;;21.92;40.47;98619.03;5090953;28;20010;-42
2023/03/10 10:52:21;;;;;;;;;;;;;;;22.06;40.49;98608.94;5091167;28;19947;-41
2023/03/10 10:54:56;;;;;;;;;;;;;;;21.62;41.41;98594.22;5091277;28;19928;-42
2023/03/10 10:57:29;;;;;;;;;;;;;;;21.54;41.75;98581.41;5091535;28;19919;-43
2023/03/10 10:59:54;;;;;;;;;;;;;;;22.05;41.44;98577.53;5091237;28;20029;-42
2023/03/10 11:02:22;;;;;;;;;;;;;;;21.77;41.95;98564.09;5091376;28;20316;-43
2023/03/10 11:04:48;;;;;;;;;;;;;;;21.75;42.36;98555.47;5090819;28;19922;-42
2023/03/10 11:07:23;;;;;;;;;;;;;;;21.96;41.88;98563.13;5091034;28;19911;-43
2023/03/10 11:09:49;;;;;;;;;;;;;;;22.04;41.81;98540.72;5091035;28;19919;-43
2023/03/10 11:12:46;;;;;;;;;;;;;;;22.86;40.49;98522.34;5090223;28;19912;-43
2023/03/10 11:15:20;;;;;;;;;;;;;;;22.62;40.77;98522.75;5067446;28;19915;-43
2023/03/10 11:17:49;;;;;;;;;;;;;;;22.92;39.87;98510.22;5091079;28;20029;-43
2023/03/10 11:20:14;;;;;;;;;;;;;;;23.31;39.22;98496.94;5090866;28;20265;-45
2023/03/10 11:22:48;;;;;;;;;;;;;;;23.48;38.47;98486.09;5090555;28;20407;-44
2023/03/10 11:25:34;;;;;;;;;;;;;;;23.93;38.35;98498.53;5090723;28;19916;-43
2023/03/10 11:27:59;;;;;;;;;;;;;;;24.51;37.36;98496.31;5083102;28;20301;-42
2023/03/10 11:30:28;;;;;;;;;;;;;;;25.03;35.70;98498.00;5090803;28;19916;-44
2023/03/10 11:33:03;;;;;;;;;;;;;;;25.18;35.79;98484.59;5090817;28;19955;-43
2023/03/10 11:35:34;;;;;;;;;;;;;;;25.70;34.49;98483.44;5090982;28;19916;-45
2023/03/10 11:38:18;;;;;;;;;;;;;;;25.22;33.97;98473.06;5090646;28;19912;-43
2023/03/10 11:40:47;;;;;;;;;;;;;;;24.66;35.55;98465.88;5090551;28;20033;-41
2023/03/10 11:43:38;;;;;;;;;;;;;;;24.06;35.78;98459.53;5090719;28;19919;-42
2023/03/10 11:46:24;;;;;;;;;;;;;;;24.66;34.78;98456.94;5090649;28;19919;-44
2023/03/10 11:48:49;;;;;;;;;;;;;;;24.89;34.61;98452.00;5090975;28;19965;-44
2023/03/10 11:51:25;;;;;;;;;;;;;;;24.73;34.72;98451.75;5090800;28;19954;-43
2023/03/10 11:53:52;;;;;;;;;;;;;;;25.23;34.14;98442.84;5090727;28;19924;-44
2023/03/10 11:56:19;;;;;;;;;;;;;;;25.34;33.95;98441.31;5090811;28;19916;-43
2023/03/10 11:58:46;;;;;;;;;;;;;;;24.93;34.88;98445.56;5090787;28;20003;-43
2023/03/10 12:01:16;;;;;;;;;;;;;;;24.88;34.97;98434.88;5090898;28;19916;-44
2023/03/10 12:03:47;;;;;;;;;;;;;;;24.35;35.63;98430.81;5090594;28;19916;-43
2023/03/10 12:06:18;;;;;;;;;;;;;;;24.66;35.39;98427.81;5090889;28;19912;-44
2023/03/10 12:08:45;;;;;;;;;;;;;;;24.86;34.88;98415.34;5090428;28;20231;-43
2023/03/10 12:11:16;;;;;;;;;;;;;;;25.18;34.41;98429.38;5090479;28;20009;-42
2023/03/10 12:13:44;;;;;;;;;;;;;;;25.30;34.15;98434.13;5090422;28;19916;-42
2023/03/10 12:16:14;;;;;;;;;;;;;;;25.41;33.93;98427.16;5090603;28;19919;-44
2023/03/10 12:18:40;;;;;;;;;;;;;;;25.59;33.80;98432.44;5090154;28;19988;-43
2023/03/10 12:21:11;;;;;;;;;;;;;;;25.51;33.82;98434.91;5090409;28;20011;-43
2023/03/10 12:23:40;;;;;;;;;;;;;;;25.59;33.94;98438.69;5090315;28;19924;-44
2023/03/10 12:26:06;;;;;;;;;;;;;;;25.57;33.86;98443.69;5094296;28;19920;-43
2023/03/10 12:28:32;;;;;;;;;;;;;;;25.56;34.15;98439.34;5094506;28;19969;-44
2023/03/10 12:31:01;;;;;;;;;;;;;;;25.42;34.39;98438.81;5094361;28;19985;-43
2023/03/10 12:33:29;;;;;;;;;;;;;;;25.18;34.51;98446.50;5094076;28;19928;-46
2023/03/10 12:36:02;;;;;;;;;;;;;;;24.31;36.11;98440.75;5093952;28;20290;-42
2023/03/10 12:38:33;;;;;;;;;;;;;;;23.15;38.67;98445.03;5094129;28;19927;-44
2023/03/10 12:40:59;;;;;;;;;;;;;;;22.98;39.21;98440.34;5093918;28;19937;-43
2023/03/10 12:43:43;;;;;;;;;;;;;;;23.08;39.04;98439.31;5094268;28;19912;-43
2023/03/10 12:46:10;;;;;;;;;;;;;;;23.06;39.48;98436.91;5093799;28;19969;-43
2023/03/10 12:48:39;;;;;;;;;;;;;;;23.10;39.54;98435.16;5093837;28;19965;-42